Time;durP1;ratioP1;P1;durP2;ratioP2;P2;SDS_P1;SDS_P2;PMS_P1;PMS_P2;Temp;Humidity;BMP_temperature;BMP_pressure;BME280_temperature;BME280_humidity;BME280_pressure;Samples;Min_cycle;Max_cycle;Signal;HPM_P1;HPM_P2
2023/08/10 00:01:18;;;;;;;0.10;0.10;;;;;;;13.01;100.00;99487.00;5092688;28;20305;-55
2023/08/10 00:04:05;;;;;;;0.10;0.10;;;;;;;12.72;100.00;99490.78;5092551;28;20191;-54
2023/08/10 00:06:52;;;;;;;0.10;0.10;;;;;;;12.88;100.00;99487.00;5092752;28;20284;-55
2023/08/10 00:09:38;;;;;;;0.10;0.10;;;;;;;12.53;100.00;99489.38;5092600;28;20265;-54
2023/08/10 00:12:26;;;;;;;0.10;0.10;;;;;;;12.51;100.00;99496.59;5091897;28;20214;-55
2023/08/10 00:15:13;;;;;;;0.10;0.10;;;;;;;12.41;100.00;99502.63;5092496;28;20190;-55
2023/08/10 00:18:00;;;;;;;0.10;0.10;;;;;;;12.35;100.00;99501.22;5092476;28;20195;-55
2023/08/10 00:20:47;;;;;;;0.10;0.10;;;;;;;12.37;100.00;99504.63;5092474;28;20199;-55
2023/08/10 00:23:34;;;;;;;0.10;0.10;;;;;;;12.37;100.00;99504.63;5092492;28;20186;-55
2023/08/10 00:26:21;;;;;;;0.10;0.10;;;;;;;12.58;100.00;99515.66;5091217;28;20253;-55
2023/08/10 00:29:09;;;;;;;0.10;0.10;;;;;;;12.40;100.00;99509.75;5092439;28;20267;-55
2023/08/10 00:31:56;;;;;;;0.10;0.10;;;;;;;12.41;100.00;99515.91;5092307;28;20345;-55
2023/08/10 00:34:43;;;;;;;0.10;0.10;;;;;;;12.47;100.00;99523.47;5095397;28;20194;-55
2023/08/10 00:37:30;;;;;;;0.10;0.10;;;;;;;12.33;100.00;99519.06;5094664;28;20225;-55
2023/08/10 00:40:17;;;;;;;0.10;0.10;;;;;;;12.12;100.00;99512.50;5093644;28;20341;-55
2023/08/10 00:43:05;;;;;;;0.10;0.10;;;;;;;12.01;100.00;99511.38;5094762;28;20190;-54
2023/08/10 00:45:54;;;;;;;0.10;0.10;;;;;;;12.16;100.00;99516.63;5094751;28;20195;-55
2023/08/10 00:48:41;;;;;;;0.10;0.10;;;;;;;12.07;100.00;99511.94;5095847;28;20191;-55
2023/08/10 00:51:28;;;;;;;0.20;0.20;;;;;;;12.22;100.00;99509.13;5095726;28;20678;-55
2023/08/10 00:54:15;;;;;;;0.10;0.10;;;;;;;12.36;100.00;99504.75;5094823;28;20199;-54
2023/08/10 00:57:02;;;;;;;0.10;0.10;;;;;;;12.00;100.00;99503.53;5094383;28;20198;-55
2023/08/10 00:59:49;;;;;;;0.10;0.10;;;;;;;11.97;100.00;99509.88;5095774;28;20187;-55
2023/08/10 01:02:38;;;;;;;0.10;0.10;;;;;;;12.00;100.00;99506.16;5095643;28;20674;-54
2023/08/10 01:05:30;;;;;;;0.10;0.10;;;;;;;12.12;100.00;99518.66;5095508;28;20198;-54
2023/08/10 01:08:22;;;;;;;0.10;0.10;;;;;;;12.31;100.00;99516.50;5095405;28;20225;-54
2023/08/10 01:11:21;;;;;;;0.10;0.10;;;;;;;12.39;100.00;99523.97;5094002;28;20253;-55
2023/08/10 01:14:13;;;;;;;0.10;0.10;;;;;;;12.26;100.00;99523.94;5095466;28;20306;-55
2023/08/10 01:17:04;;;;;;;0.10;0.10;;;;;;;12.08;100.00;99522.47;5095535;28;20199;-55
2023/08/10 01:19:55;;;;;;;0.10;0.10;;;;;;;12.22;100.00;99527.72;5095163;28;20765;-55
2023/08/10 01:22:52;;;;;;;0.10;0.10;;;;;;;12.21;100.00;99525.16;5095145;28;20195;-55
2023/08/10 01:25:42;;;;;;;0.10;0.10;;;;;;;11.94;100.00;99520.69;5093800;28;20328;-55
2023/08/10 01:28:32;;;;;;;0.10;0.10;;;;;;;11.92;100.00;99530.56;5095058;28;20225;-55
2023/08/10 01:31:19;;;;;;;0.20;0.20;;;;;;;12.06;100.00;99528.81;5093824;28;20332;-55
2023/08/10 01:34:07;;;;;;;0.10;0.10;;;;;;;12.28;100.00;99537.13;5094610;28;20239;-54
2023/08/10 01:36:54;;;;;;;0.10;0.10;;;;;;;12.21;100.00;99534.00;5094647;28;20226;-55
2023/08/10 01:39:41;;;;;;;0.10;0.10;;;;;;;12.38;100.00;99538.22;5093702;28;20194;-55
2023/08/10 01:42:29;;;;;;;0.10;0.10;;;;;;;12.29;100.00;99541.47;5094764;28;20203;-54
2023/08/10 01:45:16;;;;;;;0.10;0.10;;;;;;;12.06;100.00;99540.28;5094806;28;20195;-55
2023/08/10 01:48:09;;;;;;;0.10;0.10;;;;;;;12.00;100.00;99538.88;5094427;28;20242;-55
2023/08/10 01:50:58;;;;;;;0.10;0.10;;;;;;;12.10;100.00;99544.47;5094741;28;20257;-55
2023/08/10 01:53:48;;;;;;;0.10;0.10;;;;;;;12.18;100.00;99543.97;5094476;28;20245;-54
2023/08/10 01:56:35;;;;;;;0.10;0.10;;;;;;;12.50;100.00;99549.84;5093113;28;20187;-54
2023/08/10 01:59:23;;;;;;;0.10;0.10;;;;;;;12.52;100.00;99542.63;5094414;28;20281;-55
2023/08/10 02:02:10;;;;;;;0.10;0.10;;;;;;;12.51;100.00;99540.91;5094494;28;20207;-55
2023/08/10 02:04:57;;;;;;;0.10;0.10;;;;;;;12.60;100.00;99541.16;5093285;28;20223;-55
2023/08/10 02:07:48;;;;;;;0.10;0.10;;;;;;;12.70;100.00;99541.41;5094306;28;20230;-55
2023/08/10 02:10:35;;;;;;;0.10;0.10;;;;;;;12.64;100.00;99538.28;5092989;28;20306;-55
2023/08/10 02:13:22;;;;;;;0.10;0.10;;;;;;;12.55;100.00;99535.31;5093965;28;20214;-55
2023/08/10 02:16:11;;;;;;;0.10;0.10;;;;;;;12.66;100.00;99541.72;5093065;28;20292;-54
2023/08/10 02:18:59;;;;;;;0.10;0.10;;;;;;;12.83;100.00;99539.63;5093141;28;20190;-55
2023/08/10 02:21:46;;;;;;;0.10;0.10;;;;;;;13.15;100.00;99529.47;5092934;28;20191;-54
2023/08/10 02:24:33;;;;;;;0.10;0.10;;;;;;;13.26;100.00;99541.22;5093975;28;20191;-55
2023/08/10 02:27:20;;;;;;;0.10;0.10;;;;;;;12.94;100.00;99538.06;5093237;28;20191;-55
2023/08/10 02:30:08;;;;;;;0.10;0.10;;;;;;;13.08;100.00;99543.28;5093948;28;20205;-55
2023/08/10 02:32:57;;;;;;;0.10;0.10;;;;;;;13.10;100.00;99544.88;5093699;28;20206;-55
2023/08/10 02:35:44;;;;;;;0.10;0.10;;;;;;;13.24;100.00;99541.31;5092551;28;20272;-55
2023/08/10 02:38:31;;;;;;;0.10;0.10;;;;;;;12.94;100.00;99532.75;5093792;28;20202;-54
2023/08/10 02:41:18;;;;;;;0.10;0.10;;;;;;;13.08;100.00;99532.66;5092398;28;20194;-55
2023/08/10 02:44:05;;;;;;;0.10;0.10;;;;;;;13.14;100.00;99534.91;5093582;28;20682;-55
2023/08/10 02:46:52;;;;;;;0.10;0.10;;;;;;;13.10;100.00;99539.56;5093463;28;20265;-55
2023/08/10 02:49:40;;;;;;;0.10;0.10;;;;;;;13.05;100.00;99546.16;5093564;28;20213;-54
2023/08/10 02:52:27;;;;;;;0.10;0.10;;;;;;;13.40;100.00;99546.41;5093482;28;20195;-55
2023/08/10 02:55:15;;;;;;;0.00;0.00;;;;;;;13.27;100.00;99542.91;5092210;28;20670;-55
2023/08/10 02:58:02;;;;;;;0.10;0.10;;;;;;;13.21;100.00;99538.00;5092196;28;20214;-55
2023/08/10 03:00:49;;;;;;;0.10;0.10;;;;;;;13.12;100.00;99542.09;5092277;28;20198;-54
2023/08/10 03:03:36;;;;;;;0.10;0.10;;;;;;;13.08;100.00;99544.13;5093255;28;20241;-55
2023/08/10 03:06:24;;;;;;;0.10;0.10;;;;;;;13.37;100.00;99541.31;5092213;28;20198;-55
2023/08/10 03:09:11;;;;;;;0.10;0.10;;;;;;;13.05;100.00;99544.34;5093176;28;20187;-55
2023/08/10 03:11:58;;;;;;;0.10;0.10;;;;;;;13.06;100.00;99550.53;5090823;28;20233;-55
2023/08/10 03:14:46;;;;;;;0.10;0.10;;;;;;;12.97;100.00;99548.47;5091793;28;20234;-55
2023/08/10 03:17:33;;;;;;;0.10;0.10;;;;;;;12.86;100.00;99549.22;5093129;28;20260;-54
2023/08/10 03:20:22;;;;;;;0.10;0.10;;;;;;;12.94;100.00;99548.69;5092090;28;20187;-55
2023/08/10 03:23:10;;;;;;;0.13;0.13;;;;;;;13.07;100.00;99555.72;5093274;28;20264;-55
2023/08/10 03:25:57;;;;;;;0.10;0.10;;;;;;;13.03;100.00;99551.59;5090480;28;20198;-55
2023/08/10 03:28:44;;;;;;;0.10;0.10;;;;;;;13.08;100.00;99552.13;5092928;28;20237;-55
2023/08/10 03:31:32;;;;;;;0.10;0.10;;;;;;;13.29;100.00;99552.47;5091920;28;20199;-55
2023/08/10 03:34:19;;;;;;;0.10;0.10;;;;;;;13.06;100.00;99556.69;5091619;28;20718;-55
2023/08/10 03:37:06;;;;;;;0.10;0.10;;;;;;;12.99;100.00;99558.06;5092552;28;20225;-55
2023/08/10 03:39:54;;;;;;;0.10;0.10;;;;;;;13.03;100.00;99556.06;5092233;28;20198;-55
2023/08/10 03:42:42;;;;;;;0.10;0.10;;;;;;;12.91;100.00;99563.03;5092762;28;20262;-55
2023/08/10 03:45:29;;;;;;;0.10;0.10;;;;;;;12.94;100.00;99554.03;5091771;28;20194;-55
2023/08/10 03:48:16;;;;;;;0.10;0.10;;;;;;;12.99;100.00;99563.38;5091789;28;20195;-55
2023/08/10 03:51:03;;;;;;;0.10;0.10;;;;;;;12.89;100.00;99557.81;5092544;28;20194;-55
2023/08/10 03:53:50;;;;;;;0.10;0.10;;;;;;;12.87;100.00;99557.09;5092566;28;20218;-55
2023/08/10 03:56:42;;;;;;;0.10;0.10;;;;;;;12.83;100.00;99562.69;5090454;28;20203;-55
2023/08/10 03:59:29;;;;;;;0.10;0.10;;;;;;;12.74;100.00;99569.50;5091479;28;20195;-55
2023/08/10 04:02:16;;;;;;;0.10;0.10;;;;;;;13.06;100.00;99570.00;5091732;28;20190;-55
2023/08/10 04:05:06;;;;;;;0.10;0.10;;;;;;;13.22;100.00;99575.16;5091573;28;20221;-55
2023/08/10 04:07:53;;;;;;;0.10;0.10;;;;;;;12.92;100.00;99570.06;5091502;28;20304;-55
2023/08/10 04:10:39;;;;;;;0.10;0.10;;;;;;;13.13;100.00;99567.78;5095323;28;20187;-55
2023/08/10 04:13:28;;;;;;;0.10;0.10;;;;;;;12.91;100.00;99568.34;5096491;28;20660;-55
2023/08/10 04:16:14;;;;;;;0.10;0.10;;;;;;;12.92;100.00;99571.84;5096318;28;20220;-55
2023/08/10 04:19:01;;;;;;;0.10;0.10;;;;;;;13.14;100.00;99580.13;5096357;28;20215;-55
2023/08/10 04:21:48;;;;;;;0.10;0.10;;;;;;;13.27;100.00;99586.31;5095376;28;20191;-55
2023/08/10 04:24:35;;;;;;;0.10;0.10;;;;;;;13.15;100.00;99587.13;5096172;28;20186;-55
2023/08/10 04:27:22;;;;;;;0.10;0.10;;;;;;;13.24;100.00;99586.53;5095992;28;20191;-55
2023/08/10 04:30:12;;;;;;;0.10;0.10;;;;;;;13.08;100.00;99586.69;5096177;28;20284;-55
2023/08/10 04:32:59;;;;;;;0.10;0.10;;;;;;;13.28;100.00;99590.69;5095933;28;20195;-55
2023/08/10 04:35:46;;;;;;;0.10;0.10;;;;;;;13.21;100.00;99585.88;5095914;28;20763;-55
2023/08/10 04:38:33;;;;;;;0.10;0.10;;;;;;;13.29;100.00;99594.19;5095851;28;20729;-55
2023/08/10 04:41:20;;;;;;;0.10;0.10;;;;;;;13.25;100.00;99604.22;5094529;28;20194;-55
2023/08/10 04:44:08;;;;;;;0.10;0.10;;;;;;;13.20;100.00;99606.31;5095823;28;20190;-55
2023/08/10 04:46:56;;;;;;;0.10;0.10;;;;;;;13.26;100.00;99608.56;5095843;28;20210;-55
2023/08/10 04:49:43;;;;;;;0.10;0.10;;;;;;;13.47;100.00;99614.22;5095711;28;20194;-55
2023/08/10 04:52:30;;;;;;;0.10;0.10;;;;;;;13.28;100.00;99611.13;5095626;28;20194;-55
2023/08/10 04:55:17;;;;;;;0.10;0.10;;;;;;;13.35;100.00;99618.59;5094171;28;20211;-55
2023/08/10 04:58:05;;;;;;;0.10;0.10;;;;;;;13.29;100.00;99612.81;5095493;28;20551;-55
2023/08/10 05:00:52;;;;;;;0.10;0.10;;;;;;;13.41;100.00;99610.19;5095274;28;20210;-55
2023/08/10 05:03:41;;;;;;;0.10;0.10;;;;;;;13.49;100.00;99614.13;5095014;28;20649;-55
2023/08/10 05:06:28;;;;;;;0.10;0.10;;;;;;;13.52;100.00;99620.09;5095337;28;20199;-55
2023/08/10 05:09:15;;;;;;;0.10;0.10;;;;;;;13.47;100.00;99619.56;5095321;28;20199;-55
2023/08/10 05:12:02;;;;;;;0.10;0.10;;;;;;;13.52;100.00;99624.56;5094038;28;20191;-55
2023/08/10 05:14:49;;;;;;;0.10;0.10;;;;;;;13.73;100.00;99615.94;5095128;28;20209;-55
2023/08/10 05:17:36;;;;;;;0.10;0.10;;;;;;;13.68;100.00;99612.75;5095304;28;20183;-55
2023/08/10 05:20:25;;;;;;;0.10;0.10;;;;;;;14.11;100.00;99612.41;5094689;28;20284;-54
2023/08/10 05:23:12;;;;;;;0.07;0.07;;;;;;;13.91;100.00;99610.31;5095161;28;20257;-55
2023/08/10 05:25:58;;;;;;;0.10;0.10;;;;;;;13.89;100.00;99606.88;5094001;28;20318;-55
2023/08/10 05:28:45;;;;;;;0.10;0.10;;;;;;;13.97;100.00;99604.53;5095094;28;20194;-55
2023/08/10 05:31:33;;;;;;;0.10;0.10;;;;;;;14.02;100.00;99600.59;5095035;28;20250;-55
2023/08/10 05:34:20;;;;;;;0.10;0.10;;;;;;;13.93;100.00;99609.22;5094925;28;20714;-55
2023/08/10 05:37:08;;;;;;;0.10;0.10;;;;;;;14.09;100.00;99610.78;5094590;28;20222;-55
2023/08/10 05:39:55;;;;;;;0.10;0.10;;;;;;;14.30;100.00;99604.78;5093483;28;20202;-55
2023/08/10 05:42:43;;;;;;;0.10;0.10;;;;;;;14.24;100.00;99609.69;5094790;28;20195;-55
2023/08/10 05:45:31;;;;;;;0.10;0.10;;;;;;;14.21;100.00;99616.09;5094863;28;20682;-55
2023/08/10 05:48:17;;;;;;;0.10;0.10;;;;;;;14.32;100.00;99610.00;5094700;28;20191;-55
2023/08/10 05:51:04;;;;;;;0.10;0.10;;;;;;;14.44;100.00;99614.44;5094608;28;20195;-55
2023/08/10 05:53:52;;;;;;;0.10;0.10;;;;;;;14.86;100.00;99607.81;5094531;28;20219;-55
2023/08/10 05:56:40;;;;;;;0.10;0.10;;;;;;;14.78;100.00;99612.88;5093284;28;20221;-55
2023/08/10 05:59:26;;;;;;;0.10;0.10;;;;;;;14.71;100.00;99608.94;5094425;28;20253;-55
2023/08/10 06:02:13;;;;;;;0.10;0.10;;;;;;;14.72;100.00;99607.13;5094507;28;20245;-55
2023/08/10 06:05:00;;;;;;;0.10;0.10;;;;;;;14.94;100.00;99612.56;5094444;28;20264;-55
2023/08/10 06:07:48;;;;;;;0.10;0.10;;;;;;;14.93;100.00;99608.19;5094299;28;20543;-55
2023/08/10 06:10:36;;;;;;;0.10;0.10;;;;;;;15.06;100.00;99614.31;5092904;28;20187;-55
2023/08/10 06:13:23;;;;;;;0.10;0.10;;;;;;;15.05;100.00;99614.41;5094221;28;20194;-55
2023/08/10 06:16:10;;;;;;;0.10;0.10;;;;;;;15.12;100.00;99618.34;5093882;28;20214;-55
2023/08/10 06:18:57;;;;;;;0.10;0.10;;;;;;;15.10;100.00;99617.59;5094081;28;20387;-56
2023/08/10 06:21:43;;;;;;;0.10;0.10;;;;;;;15.07;100.00;99620.50;5093988;28;20203;-55
2023/08/10 06:24:30;;;;;;;0.10;0.10;;;;;;;15.25;100.00;99616.47;5093959;28;20248;-55
2023/08/10 06:27:19;;;;;;;0.10;0.10;;;;;;;15.22;100.00;99611.34;5093890;28;20206;-55
2023/08/10 06:30:08;;;;;;;0.10;0.10;;;;;;;15.41;100.00;99621.47;5093865;28;20191;-55
2023/08/10 06:32:54;;;;;;;0.10;0.10;;;;;;;15.35;100.00;99619.28;5093471;28;20198;-55
2023/08/10 06:35:41;;;;;;;0.10;0.10;;;;;;;15.37;100.00;99628.88;5093277;28;20230;-55
2023/08/10 06:38:29;;;;;;;0.10;0.10;;;;;;;15.60;100.00;99626.25;5093655;28;20198;-55
2023/08/10 06:41:15;;;;;;;0.10;0.10;;;;;;;15.91;100.00;99622.91;5092384;28;20195;-56
2023/08/10 06:44:04;;;;;;;0.10;0.10;;;;;;;16.05;100.00;99616.50;5093518;28;20229;-55
2023/08/10 06:46:51;;;;;;;0.10;0.10;;;;;;;16.26;100.00;99620.13;5093431;28;20254;-55
2023/08/10 06:49:38;;;;;;;0.10;0.10;;;;;;;16.33;100.00;99623.16;5093460;28;20219;-55
2023/08/10 06:52:25;;;;;;;0.10;0.10;;;;;;;16.55;100.00;99608.91;5093494;28;20191;-55
2023/08/10 06:55:12;;;;;;;0.10;0.10;;;;;;;17.10;100.00;99604.38;5092099;28;20372;-55
2023/08/10 06:58:00;;;;;;;0.10;0.10;;;;;;;17.41;100.00;99606.16;5093398;28;20197;-55
2023/08/10 07:00:48;;;;;;;0.10;0.10;;;;;;;17.66;100.00;99607.59;5093306;28;20720;-55
2023/08/10 07:03:36;;;;;;;0.10;0.10;;;;;;;17.77;100.00;99604.00;5092223;28;20217;-55
2023/08/10 07:06:22;;;;;;;0.10;0.10;;;;;;;17.62;100.00;99599.94;5093270;28;20190;-55
2023/08/10 07:09:10;;;;;;;0.10;0.10;;;;;;;17.89;100.00;99591.38;5093117;28;20202;-55
2023/08/10 07:11:56;;;;;;;0.10;0.10;;;;;;;17.83;100.00;99598.09;5091901;28;20229;-55
2023/08/10 07:14:43;;;;;;;0.10;0.10;;;;;;;17.86;100.00;99608.56;5093000;28;20190;-55
2023/08/10 07:17:31;;;;;;;0.10;0.10;;;;;;;18.27;100.00;99604.09;5093051;28;20214;-55
2023/08/10 07:20:20;;;;;;;0.10;0.10;;;;;;;18.51;100.00;99603.72;5092835;28;20232;-56
2023/08/10 07:23:06;;;;;;;0.10;0.10;;;;;;;18.85;100.00;99609.59;5093163;28;20686;-55
2023/08/10 07:25:54;;;;;;;0.10;0.10;;;;;;;19.06;100.00;99606.78;5090462;28;20195;-56
2023/08/10 07:28:41;;;;;;;0.00;0.00;;;;;;;18.97;100.00;99599.56;5092587;28;20195;-56
2023/08/10 07:31:31;;;;;;;0.10;0.10;;;;;;;18.77;100.00;99606.78;5092915;28;20202;-55
2023/08/10 07:34:19;;;;;;;0.10;0.10;;;;;;;19.22;100.00;99601.72;5092712;28;20554;-56
2023/08/10 07:37:06;;;;;;;0.10;0.10;;;;;;;18.87;100.00;99596.88;5092440;28;20231;-56
2023/08/10 07:39:53;;;;;;;0.10;0.10;;;;;;;19.31;100.00;99597.31;5091434;28;20198;-56
2023/08/10 07:42:40;;;;;;;0.10;0.10;;;;;;;18.76;100.00;99603.25;5094236;28;20189;-56
2023/08/10 07:45:27;;;;;;;0.10;0.10;;;;;;;19.59;100.00;99604.53;5097047;28;20215;-56
2023/08/10 07:48:14;;;;;;;0.10;0.10;;;;;;;20.19;100.00;99596.94;5096847;28;20191;-56
2023/08/10 07:51:03;;;;;;;0.10;0.10;;;;;;;19.92;100.00;99586.16;5096843;28;20191;-56
2023/08/10 07:53:50;;;;;;;0.10;0.10;;;;;;;20.24;100.00;99589.28;5096773;28;20210;-56
2023/08/10 07:56:36;;;;;;;0.10;0.10;;;;;;;20.83;100.00;99585.25;5095480;28;20218;-55
2023/08/10 07:59:23;;;;;;;0.10;0.10;;;;;;;20.42;100.00;99580.41;5096633;28;20197;-56
2023/08/10 08:02:10;;;;;;;0.10;0.10;;;;;;;20.22;100.00;99576.97;5096422;28;20364;-56
2023/08/10 08:04:57;;;;;;;0.10;0.10;;;;;;;20.08;100.00;99593.63;5094182;28;20206;-56
2023/08/10 08:07:46;;;;;;;0.10;0.10;;;;;;;19.80;100.00;99604.31;5085001;28;20210;-56
2023/08/10 08:10:33;;;;;;;0.00;0.00;;;;;;;20.04;100.00;99598.44;5075025;28;20315;-55
2023/08/10 08:13:22;;;;;;;0.10;0.10;;;;;;;19.55;100.00;99596.84;5076242;28;20195;-56
2023/08/10 08:16:09;;;;;;;0.10;0.10;;;;;;;19.53;100.00;99588.94;5075732;28;20218;-55
2023/08/10 08:18:56;;;;;;;0.10;0.10;;;;;;;20.07;100.00;99602.66;5076163;28;20230;-55
2023/08/10 08:21:46;;;;;;;0.10;0.10;;;;;;;20.44;100.00;99594.56;5076123;28;20265;-56
2023/08/10 08:24:34;;;;;;;0.10;0.10;;;;;;;20.41;100.00;99593.00;5076009;28;20189;-56
2023/08/10 08:27:21;;;;;;;0.10;0.10;;;;;;;20.18;100.00;99584.50;5076056;28;20187;-56
2023/08/10 08:30:09;;;;;;;0.10;0.10;;;;;;;20.33;100.00;99584.84;5075829;28;20187;-55
2023/08/10 08:32:57;;;;;;;0.10;0.10;;;;;;;20.39;100.00;99586.94;5075745;28;20208;-55
2023/08/10 08:35:45;;;;;;;0.10;0.10;;;;;;;20.74;100.00;99572.69;5075713;28;20227;-55
2023/08/10 08:38:33;;;;;;;0.10;0.10;;;;;;;20.70;100.00;99578.56;5075807;28;20199;-55
2023/08/10 08:41:23;;;;;;;0.10;0.10;;;;;;;20.81;100.00;99578.31;5074239;28;20203;-56
2023/08/10 08:44:10;;;;;;;0.10;0.10;;;;;;;20.70;100.00;99575.88;5075762;28;20257;-56
2023/08/10 08:46:57;;;;;;;0.10;0.10;;;;;;;21.02;100.00;99565.38;5075622;28;20195;-56
2023/08/10 08:49:45;;;;;;;0.10;0.10;;;;;;;21.40;100.00;99574.16;5075765;28;20199;-56
2023/08/10 08:52:32;;;;;;;0.10;0.10;;;;;;;21.29;90.42;99564.47;5075575;28;20306;-55
2023/08/10 08:55:19;;;;;;;0.10;0.10;;;;;;;21.15;95.42;99560.47;5073362;28;20191;-56
2023/08/10 08:58:08;;;;;;;0.10;0.10;;;;;;;21.40;97.91;99550.75;5075634;28;20239;-56
2023/08/10 09:00:55;;;;;;;0.10;0.10;;;;;;;20.85;97.44;99553.66;5075376;28;20200;-55
2023/08/10 09:03:42;;;;;;;0.10;0.10;;;;;;;20.99;92.77;99551.41;5075369;28;20675;-55
2023/08/10 09:06:29;;;;;;;0.10;0.10;;;;;;;20.60;97.03;99557.09;5075348;28;20261;-55
2023/08/10 09:09:17;;;;;;;0.00;0.00;;;;;;;21.06;96.42;99552.47;5075275;28;20195;-56
2023/08/10 09:12:31;;;;;;;0.10;0.10;;;;;;;21.00;94.58;99550.41;5073784;28;20200;-55
2023/08/10 09:15:20;;;;;;;0.10;0.10;;;;;;;21.35;94.71;99555.78;5075273;28;20208;-56
2023/08/10 09:18:07;;;;;;;0.10;0.10;;;;;;;21.59;91.51;99552.38;5074993;28;20191;-56
2023/08/10 09:21:06;;;;;;;0.10;0.10;;;;;;;22.08;83.49;99543.75;5073815;28;20195;-56
2023/08/10 09:23:54;;;;;;;0.10;0.10;;;;;;;22.57;84.35;99550.97;5074927;28;20258;-56
2023/08/10 09:26:41;;;;;;;0.08;0.08;;;;;;;22.31;80.95;99552.94;5073455;28;20192;-55
2023/08/10 09:29:30;;;;;;;0.10;0.10;;;;;;;22.45;84.78;99543.38;5074979;28;20191;-55
2023/08/10 09:32:20;;;;;;;0.10;0.10;;;;;;;22.49;80.67;99548.28;5074675;28;20192;-56
2023/08/10 09:35:12;;;;;;;0.05;0.05;;;;;;;22.66;81.69;99540.19;5074414;28;20199;-56
2023/08/10 09:38:04;;;;;;;0.10;0.10;;;;;;;22.79;77.11;99545.97;5074039;28;20223;-56
2023/08/10 09:41:07;;;;;;;0.10;0.10;;;;;;;22.87;72.13;99542.44;5073086;28;20195;-56
2023/08/10 09:43:54;;;;;;;0.10;0.10;;;;;;;22.68;75.20;99543.56;5074214;28;20195;-56
2023/08/10 09:46:41;;;;;;;0.10;0.10;;;;;;;22.69;75.34;99539.88;5074095;28;20285;-56
2023/08/10 09:49:29;;;;;;;0.10;0.10;;;;;;;23.22;77.37;99533.19;5073109;28;20199;-56
2023/08/10 09:52:16;;;;;;;0.10;0.10;;;;;;;23.78;73.27;99539.53;5074174;28;20667;-56
2023/08/10 09:55:04;;;;;;;0.10;0.10;;;;;;;23.78;71.78;99540.38;5072873;28;20195;-56
2023/08/10 09:57:52;;;;;;;0.10;0.10;;;;;;;24.14;68.86;99539.91;5073970;28;20214;-56
2023/08/10 10:00:43;;;;;;;0.10;0.10;;;;;;;24.04;62.28;99540.13;5074009;28;20191;-56
2023/08/10 10:03:31;;;;;;;0.10;0.10;;;;;;;24.48;58.23;99550.44;5101538;28;20216;-56
2023/08/10 10:06:20;;;;;;;0.10;0.10;;;;;;;24.51;61.06;99537.41;5072514;28;20188;-56
2023/08/10 10:09:08;;;;;;;0.00;0.00;;;;;;;24.56;61.86;99528.72;5085145;28;20215;-56
2023/08/10 10:11:57;;;;;;;0.10;0.10;;;;;;;24.83;61.56;99527.34;5092705;28;20202;-56
2023/08/10 10:14:46;;;;;;;0.10;0.10;;;;;;;25.08;61.38;99526.16;5094000;28;20191;-56
2023/08/10 10:17:33;;;;;;;0.10;0.10;;;;;;;25.24;60.62;99521.63;5093638;28;20223;-56
2023/08/10 10:20:20;;;;;;;0.10;0.10;;;;;;;25.28;59.94;99517.50;5093877;28;20195;-56
2023/08/10 10:23:15;;;;;;;0.10;0.10;;;;;;;25.42;60.39;99511.28;5093956;28;20190;-56
2023/08/10 10:26:04;;;;;;;0.00;0.00;;;;;;;25.69;55.92;99521.50;5092605;28;20195;-57
2023/08/10 10:29:12;;;;;;;0.00;0.00;;;;;;;26.02;51.91;99514.88;5092257;28;20235;-57
2023/08/10 10:32:05;;;;;;;0.03;0.03;;;;;;;26.16;52.64;99520.31;5121464;27;20198;-57
2023/08/10 10:34:53;;;;;;;0.00;0.00;;;;;;;26.21;50.61;99515.13;5093600;28;20674;-58
2023/08/10 10:37:40;;;;;;;0.10;0.10;;;;;;;26.47;48.10;99505.66;5093038;28;20340;-57
2023/08/10 10:40:28;;;;;;;0.10;0.10;;;;;;;26.31;48.13;99508.56;5092257;28;20662;-57
2023/08/10 10:43:15;;;;;;;0.00;0.00;;;;;;;27.01;46.04;99497.81;5093397;28;20190;-57
2023/08/10 10:46:03;;;;;;;0.00;0.00;;;;;;;27.38;44.77;99501.28;5093252;28;20199;-57
2023/08/10 10:48:50;;;;;;;0.00;0.00;;;;;;;27.09;48.07;99500.41;5093502;28;20203;-58
2023/08/10 10:51:53;;;;;;;0.00;0.00;;;;;;;27.01;44.99;99495.09;5093390;28;20207;-57
2023/08/10 10:54:40;;;;;;;0.00;0.00;;;;;;;27.62;45.27;99494.56;5092875;28;20231;-57
2023/08/10 10:57:29;;;;;;;0.10;0.10;;;;;;;28.44;41.80;99494.56;5093016;28;20242;-57
2023/08/10 11:00:16;;;;;;;0.00;0.00;;;;;;;30.07;40.32;99497.72;5092111;28;20199;-58
2023/08/10 11:03:05;;;;;;;0.00;0.00;;;;;;;31.89;35.93;99485.88;5092529;28;20206;-55
2023/08/10 11:05:52;;;;;;;0.00;0.00;;;;;;;32.18;36.88;99479.63;5092551;28;20202;-55
2023/08/10 11:08:39;;;;;;;0.00;0.00;;;;;;;33.52;34.45;99482.06;5092969;28;20741;-56
2023/08/10 11:11:26;;;;;;;0.00;0.00;;;;;;;34.25;32.63;99480.59;5091440;28;20198;-55
2023/08/10 11:14:14;;;;;;;0.00;0.00;;;;;;;33.75;34.33;99475.69;5092861;28;20241;-55
2023/08/10 11:17:01;;;;;;;0.00;0.00;;;;;;;34.77;32.45;99475.03;5092431;28;20218;-55
2023/08/10 11:19:51;;;;;;;0.00;0.00;;;;;;;37.05;26.05;99465.44;5092752;28;20198;-55
2023/08/10 11:22:40;;;;;;;0.00;0.00;;;;;;;35.94;28.62;99461.19;5089042;28;20207;-55
2023/08/10 11:25:31;;;;;;;0.00;0.00;;;;;;;36.22;27.52;99459.31;5071341;28;20191;-55
2023/08/10 11:28:22;;;;;;;0.00;0.00;;;;;;;36.33;26.30;99456.41;5072573;28;20671;-54
2023/08/10 11:31:10;;;;;;;0.00;0.00;;;;;;;36.87;27.50;99462.00;5072482;28;20217;-55
2023/08/10 11:33:58;;;;;;;0.00;0.00;;;;;;;37.22;23.69;99466.13;5072485;28;20203;-55
2023/08/10 11:36:44;;;;;;;0.00;0.00;;;;;;;38.23;23.80;99462.31;5072094;28;20235;-55
2023/08/10 11:39:32;;;;;;;0.00;0.00;;;;;;;36.71;24.78;99462.91;5071975;28;20202;-55
2023/08/10 11:42:19;;;;;;;0.00;0.00;;;;;;;38.99;22.11;99450.53;5072426;28;20196;-55
2023/08/10 11:45:11;;;;;;;0.00;0.00;;;;;;;39.52;22.37;99446.34;5072501;28;20206;-55
2023/08/10 11:48:00;;;;;;;0.00;0.00;;;;;;;40.05;22.01;99452.31;5072346;28;20246;-55
2023/08/10 11:50:59;;;;;;;0.00;0.00;;;;;;;37.59;25.31;99457.81;5072181;28;20262;-55
2023/08/10 11:53:47;;;;;;;0.00;0.00;;;;;;;37.00;26.49;99454.34;5072390;28;20202;-55
2023/08/10 11:56:34;;;;;;;0.00;0.00;;;;;;;36.24;26.32;99457.97;5071135;28;20203;-55
2023/08/10 11:59:21;;;;;;;0.00;0.00;;;;;;;36.99;25.07;99455.44;5071985;28;20304;-55
2023/08/10 12:02:11;;;;;;;0.00;0.00;;;;;;;38.52;22.81;99444.13;5072425;28;20242;-55
2023/08/10 12:05:02;;;;;;;0.00;0.00;;;;;;;38.76;24.14;99438.06;5072325;28;20196;-56
2023/08/10 12:07:49;;;;;;;0.00;0.00;;;;;;;39.19;23.34;99443.09;5076398;28;20273;-55
2023/08/10 12:10:38;;;;;;;0.00;0.00;;;;;;;37.80;23.66;99444.97;5071027;28;20269;-55
2023/08/10 12:13:25;;;;;;;0.00;0.00;;;;;;;39.05;20.37;99439.19;5072166;28;20299;-55
2023/08/10 12:16:12;;;;;;;0.00;0.00;;;;;;;35.98;23.91;99436.69;5072085;28;20234;-55
2023/08/10 12:18:59;;;;;;;0.00;0.00;;;;;;;39.13;22.02;99440.59;5071678;28;20218;-55
2023/08/10 12:21:47;;;;;;;0.00;0.00;;;;;;;38.66;21.91;99439.69;5072069;28;20254;-55
2023/08/10 12:24:34;;;;;;;0.00;0.00;;;;;;;39.14;22.22;99436.72;5072018;28;20223;-56
2023/08/10 12:27:21;;;;;;;0.00;0.00;;;;;;;39.30;21.96;99432.81;5072130;28;20253;-55
2023/08/10 12:30:10;;;;;;;0.00;0.00;;;;;;;40.18;20.66;99425.88;5074069;28;20203;-55
2023/08/10 12:32:56;;;;;;;0.00;0.00;;;;;;;40.38;20.60;99422.16;5075619;28;20199;-55
2023/08/10 12:35:44;;;;;;;0.00;0.00;;;;;;;36.45;23.18;99422.34;5075287;28;20239;-55
2023/08/10 12:38:32;;;;;;;0.00;0.00;;;;;;;39.15;21.07;99417.03;5075373;28;20353;-55
2023/08/10 12:41:19;;;;;;;0.00;0.00;;;;;;;37.02;23.71;99428.13;5074070;28;20215;-55
2023/08/10 12:44:06;;;;;;;0.00;0.00;;;;;;;37.96;22.71;99421.81;5075446;28;20187;-55
2023/08/10 12:46:53;;;;;;;0.00;0.00;;;;;;;39.87;22.17;99422.41;5075454;28;20191;-55
2023/08/10 12:49:40;;;;;;;0.00;0.00;;;;;;;40.29;20.23;99417.19;5075487;28;20192;-56
2023/08/10 12:52:27;;;;;;;0.00;0.00;;;;;;;41.25;20.15;99423.13;5075453;28;20195;-56
2023/08/10 12:55:15;;;;;;;0.00;0.00;;;;;;;38.97;21.78;99425.88;5074045;28;20188;-56
2023/08/10 12:58:02;;;;;;;0.00;0.00;;;;;;;40.40;20.96;99409.63;5075027;28;20223;-56
2023/08/10 13:00:49;;;;;;;0.00;0.00;;;;;;;40.51;21.01;99410.41;5075239;28;20190;-56
2023/08/10 13:03:36;;;;;;;0.00;0.00;;;;;;;37.28;22.74;99420.84;5075062;28;20190;-56